SAOU/LUQ METAR and TAF weather

Enter ICAO airport designator
Station Type Date Time Source
SAOU METAR 2020/03/25 15:25 UTC NOAA

SAOU 251525Z 14009KT 100V180 8000 -DZ BKN018 OVC100 18/17 Q1020


Station Type Date Time Source
SAOU Decoded METAR 2020/03/25 15:25 UTC NOAA

San Luis Aerodrome, Argentina (SAOU) 33-16S 066-21W 713M
Mar 25, 2020 - 11:25 AM EDT / 2020.03.25 1525 UTC
Wind: from the SE (140 degrees) at 10 MPH (9 KT) (direction variable):0
Visibility: 4 mile(s):0
Sky conditions: overcast
Weather: light drizzle
Temperature: 64 F (18 C)
Dew Point: 62 F (17 C)
Relative Humidity: 93%
Pressure (altimeter): 30.12 in. Hg (1020 hPa)
ob: SAOU 251525Z 14009KT 100V180 8000 -DZ BKN018 OVC100 18/17 Q1020
cycle: 15

Station Type Date Time Source
SAOU TAF 2019/11/14 19:21 UTC NOAA

TAF TAF
AMD SAOU 141900Z 1419/1518 07010KT 7000 TSRA SCT030 FEW040CB SCT080 TX32/1419Z TN21/1509Z
BECMG 1421/1423 11010KT 9999 VCTS SCT040 FEW050CB PROB40
TEMPO 1502/1506 14010KT 6000 TSRA BKN020 FEW030CB
BECMG 1507/1509 07005KT 9999 NSW SCT030

Example: see airport list